Terminal Aerodrome Forecast
Issued by NWS

Current Version | Previous Version | Graphics & Text | Print | Product List | Glossary On
Versions: 1 2 3 4 5 6 7 8 9 10 11 12 13 14 15 16 17 18 19 20 21 22 23 24 25 26
995
FTUS41 KRLX 201449 AAA
TAFCKB
TAF AMD
KCKB 201449Z 2015/2112 25003KT P6SM BKN050
     FM202000 27003KT P6SM VCSH BKN050
     FM202300 20003KT P6SM BKN150
     FM210600 00000KT 4SM BR SCT150
     FM210900 00000KT 1SM BR BKN001=

USA.gov is the U.S. government's official web portal to all federal, state and local government web resources and services.